createdAt,value
2019-04-01T00:02:04.409Z,63.93
2019-04-01T00:04:32.032Z,69.07
2019-04-01T00:06:59.537Z,68.50
2019-04-01T00:09:27.053Z,69.13
2019-04-01T00:11:56.386Z,59.13
2019-04-01T00:14:23.874Z,65.13
2019-04-01T00:16:51.365Z,61.77
2019-04-01T00:19:18.860Z,64.37
2019-04-01T00:21:46.313Z,68.90
2019-04-01T00:24:13.850Z,71.43
2019-04-01T00:26:41.308Z,60.30
2019-04-01T00:29:08.774Z,65.07
2019-04-01T00:31:36.185Z,56.80
2019-04-01T00:34:03.678Z,65.00
2019-04-01T00:36:31.182Z,58.23
2019-04-01T00:38:59.003Z,72.30
2019-04-01T00:41:26.490Z,69.67
2019-04-01T00:43:55.697Z,66.27
2019-04-01T00:46:23.447Z,62.90
2019-04-01T00:48:51.100Z,57.17
2019-04-01T00:51:18.615Z,58.80
2019-04-01T00:53:46.209Z,55.73
2019-04-01T00:56:13.665Z,61.57
2019-04-01T00:58:41.154Z,66.03
2019-04-01T01:01:08.642Z,60.87
2019-04-01T01:03:36.106Z,61.40
2019-04-01T01:06:03.535Z,62.07
2019-04-01T01:08:30.989Z,65.93
2019-04-01T01:10:58.583Z,71.90
2019-04-01T01:13:26.033Z,72.50
2019-04-01T01:15:53.450Z,63.77
2019-04-01T01:18:21.049Z,65.70
2019-04-01T01:20:48.551Z,62.13
2019-04-01T01:23:16.089Z,72.30
2019-04-01T01:25:43.595Z,67.13
2019-04-01T01:28:11.206Z,70.00
2019-04-01T01:30:38.695Z,64.70
2019-04-01T01:33:06.190Z,66.07
2019-04-01T01:35:33.698Z,69.90
2019-04-01T01:38:01.249Z,64.13
2019-04-01T01:40:28.789Z,67.80
2019-04-01T01:42:56.229Z,58.93
2019-04-01T01:45:23.694Z,70.57
2019-04-01T01:47:51.133Z,58.43
2019-04-01T01:50:18.608Z,53.67
2019-04-01T01:52:46.066Z,75.50
2019-04-01T01:55:13.546Z,66.77
2019-04-01T01:57:41.014Z,60.87
2019-04-01T02:00:09.382Z,64.80
2019-04-01T02:02:37.190Z,70.63
2019-04-01T02:05:04.809Z,69.67
2019-04-01T02:07:32.462Z,63.80
2019-04-01T02:09:59.903Z,60.40
2019-04-01T02:12:27.546Z,71.93
2019-04-01T02:14:55.958Z,69.80
2019-04-01T02:17:23.499Z,64.60
2019-04-01T02:19:51.058Z,66.80
2019-04-01T02:22:18.528Z,72.10
2019-04-01T02:24:45.937Z,67.00
2019-04-01T02:27:13.397Z,60.83
2019-04-01T02:29:40.886Z,77.33
2019-04-01T02:32:08.435Z,60.93
2019-04-01T02:34:35.872Z,68.80
2019-04-01T02:37:03.497Z,62.90
2019-04-01T02:39:31.030Z,72.17
2019-04-01T02:41:58.901Z,65.40
2019-04-01T02:44:26.676Z,63.17
2019-04-01T02:46:54.139Z,72.57
2019-04-01T02:49:21.584Z,67.23
2019-04-01T02:51:49.110Z,65.43
2019-04-01T02:54:16.722Z,73.47
2019-04-01T02:56:44.198Z,66.97
2019-04-01T02:59:11.768Z,71.93
2019-04-01T03:01:39.299Z,76.80
2019-04-01T03:04:06.734Z,81.27
2019-04-01T03:06:34.181Z,75.87
2019-04-01T03:09:01.614Z,72.43
2019-04-01T03:11:30.058Z,65.97
2019-04-01T03:13:57.614Z,80.67
2019-04-01T03:16:25.090Z,76.73
2019-04-01T03:18:52.678Z,84.10
2019-04-01T03:21:20.143Z,80.80
2019-04-01T03:23:47.616Z,73.63
2019-04-01T03:26:15.131Z,71.93
2019-04-01T03:28:42.640Z,68.13
2019-04-01T03:31:10.154Z,74.27
2019-04-01T03:33:37.776Z,75.73
2019-04-01T03:36:05.422Z,85.30
2019-04-01T03:38:32.995Z,70.20
2019-04-01T03:41:01.582Z,72.90
2019-04-01T03:43:29.078Z,71.97
2019-04-01T03:45:56.552Z,73.43
2019-04-01T03:48:25.415Z,71.40
2019-04-01T03:50:52.860Z,72.07
2019-04-01T03:53:20.459Z,72.00
2019-04-01T03:55:48.035Z,68.50
2019-04-01T03:58:15.499Z,71.50
2019-04-01T04:00:42.953Z,67.70
2019-04-01T04:03:10.809Z,83.30
2019-04-01T04:05:38.300Z,75.77
2019-04-01T04:08:06.156Z,67.13
2019-04-01T04:10:33.732Z,77.50
2019-04-01T04:13:01.373Z,68.60
2019-04-01T04:15:28.954Z,79.57
2019-04-01T04:17:56.382Z,66.10
2019-04-01T04:20:23.892Z,82.20
2019-04-01T04:22:51.484Z,80.63
2019-04-01T04:25:18.936Z,72.33
2019-04-01T04:27:46.387Z,77.80
2019-04-01T04:30:17.907Z,78.53
2019-04-01T04:32:45.465Z,72.07
2019-04-01T04:35:12.939Z,73.87
2019-04-01T04:37:40.381Z,68.00
2019-04-01T04:40:08.201Z,73.70
2019-04-01T04:42:35.766Z,71.50
2019-04-01T04:45:03.745Z,72.63
2019-04-01T04:47:31.295Z,64.53
2019-04-01T04:49:58.763Z,71.40
2019-04-01T04:52:26.262Z,75.37
2019-04-01T04:54:53.731Z,75.20
2019-04-01T04:57:21.328Z,78.90
2019-04-01T04:59:48.852Z,80.40
2019-04-01T05:02:16.310Z,81.30
2019-04-01T05:04:43.767Z,66.97
2019-04-01T05:07:11.249Z,83.17
2019-04-01T05:09:38.774Z,71.80
2019-04-01T05:12:06.393Z,68.07
2019-04-01T05:14:34.034Z,79.80
2019-04-01T05:17:01.522Z,69.73
2019-04-01T05:19:29.028Z,77.90
2019-04-01T05:21:57.597Z,73.80
2019-04-01T05:24:26.007Z,81.20
2019-04-01T05:26:55.175Z,84.53
2019-04-01T05:29:24.796Z,82.73
2019-04-01T05:31:54.185Z,116.63
2019-04-01T05:34:23.545Z,133.10
2019-04-01T05:36:51.019Z,159.57
2019-04-01T05:39:19.229Z,83.60
2019-04-01T05:41:46.645Z,96.47
2019-04-01T05:44:14.198Z,74.90
2019-04-01T05:46:41.655Z,73.23
2019-04-01T05:49:09.473Z,79.77
2019-04-01T05:51:36.941Z,78.30
2019-04-01T05:54:04.694Z,86.60
2019-04-01T05:56:34.289Z,71.67
2019-04-01T05:59:02.913Z,83.33
2019-04-01T06:01:35.630Z,75.37
2019-04-01T06:04:03.551Z,72.07
2019-04-01T06:06:31.033Z,74.33
2019-04-01T06:08:58.619Z,78.77
2019-04-01T06:11:26.474Z,70.63
2019-04-01T06:13:54.885Z,74.77
2019-04-01T06:16:22.754Z,72.77
2019-04-01T06:18:50.310Z,71.17
2019-04-01T06:21:17.931Z,66.43
2019-04-01T06:23:45.431Z,99.93
2019-04-01T06:26:13.245Z,87.90
2019-04-01T06:28:40.889Z,62.43
2019-04-01T06:31:10.222Z,63.77
2019-04-01T06:33:37.800Z,67.00
2019-04-01T06:36:05.399Z,96.80
2019-04-01T06:38:32.924Z,57.90
2019-04-01T06:41:00.439Z,56.03
2019-04-01T06:43:27.950Z,60.40
2019-04-01T06:45:55.497Z,50.30
2019-04-01T06:48:23.220Z,55.80
2019-04-01T06:50:51.285Z,62.30
2019-04-01T06:53:18.954Z,56.97
2019-04-01T06:55:46.458Z,52.53
2019-04-01T06:58:14.278Z,57.10
2019-04-01T07:00:41.862Z,56.43
2019-04-01T07:03:09.301Z,61.43
2019-04-01T07:05:36.839Z,63.53
2019-04-01T07:08:04.543Z,55.30
2019-04-01T07:10:32.253Z,47.03
2019-04-01T07:13:00.425Z,55.77
2019-04-01T07:15:28.051Z,60.30
2019-04-01T07:17:55.959Z,53.20
2019-04-01T07:20:23.424Z,53.30
2019-04-01T07:22:50.873Z,63.00
2019-04-01T07:25:18.442Z,51.77
2019-04-01T07:27:45.942Z,56.47
2019-04-01T07:30:14.242Z,52.00
2019-04-01T07:32:42.390Z,60.40
2019-04-01T07:35:09.953Z,53.53
2019-04-01T07:37:37.453Z,51.30
2019-04-01T07:40:05.496Z,53.23
2019-04-01T07:42:33.002Z,51.60
2019-04-01T07:45:00.474Z,47.77
2019-04-01T07:47:27.996Z,51.23
2019-04-01T07:49:55.426Z,50.27
2019-04-01T07:52:22.955Z,49.10
2019-04-01T07:54:50.396Z,48.43
2019-04-01T07:57:18.033Z,51.20
2019-04-01T07:59:45.637Z,55.27
2019-04-01T08:02:13.652Z,46.80
2019-04-01T08:04:41.064Z,43.33
2019-04-01T08:07:08.575Z,51.40
2019-04-01T08:09:36.007Z,48.90
2019-04-01T08:12:03.644Z,44.83
2019-04-01T08:14:31.182Z,44.77
2019-04-01T08:16:58.840Z,55.67
2019-04-01T08:19:26.303Z,52.47
2019-04-01T08:21:53.778Z,50.93
2019-04-01T08:24:21.246Z,49.97
2019-04-01T08:26:48.717Z,42.27
2019-04-01T08:29:29.397Z,46.30
2019-04-01T08:31:45.598Z,45.43
2019-04-01T08:34:13.106Z,44.97
2019-04-01T08:36:53.155Z,46.80
2019-04-01T08:39:20.609Z,43.10
2019-04-01T08:41:48.138Z,49.53
2019-04-01T08:44:16.692Z,42.63
2019-04-01T08:46:44.125Z,41.00
2019-04-01T08:49:11.701Z,45.20
2019-04-01T08:51:39.206Z,42.67
2019-04-01T08:54:06.917Z,35.37
2019-04-01T08:56:39.886Z,38.80
2019-04-01T08:59:07.680Z,47.20
2019-04-01T09:01:35.728Z,40.73
2019-04-01T09:04:03.560Z,42.30
2019-04-01T09:06:31.458Z,42.43
2019-04-01T09:08:59.971Z,34.00
2019-04-01T09:11:27.945Z,41.70
2019-04-01T09:13:56.813Z,37.10
2019-04-01T09:16:24.695Z,36.40
2019-04-01T09:18:52.239Z,44.27
2019-04-01T09:21:19.658Z,35.50
2019-04-01T09:23:47.369Z,35.40
2019-04-01T09:26:15.009Z,36.20
2019-04-01T09:28:42.464Z,34.23
2019-04-01T09:31:10.048Z,33.43
2019-04-01T09:33:37.595Z,30.73
2019-04-01T09:36:05.007Z,33.57
2019-04-01T09:38:32.553Z,52.50
2019-04-01T09:41:01.111Z,32.20
2019-04-01T09:43:28.575Z,35.07
2019-04-01T09:45:56.059Z,31.07
2019-04-01T09:48:23.919Z,32.63
2019-04-01T09:50:51.553Z,36.13
2019-04-01T09:53:19.133Z,30.90
2019-04-01T09:55:46.955Z,34.13
2019-04-01T09:58:14.522Z,37.40
2019-04-01T10:00:42.083Z,40.63
2019-04-01T10:03:09.759Z,28.77
2019-04-01T10:05:37.471Z,35.67
2019-04-01T10:08:05.264Z,42.13
2019-04-01T10:10:33.111Z,34.77
2019-04-01T10:13:01.007Z,39.47
2019-04-01T10:15:28.864Z,32.83
2019-04-01T10:17:56.462Z,32.27
2019-04-01T10:20:24.196Z,26.10
2019-04-01T10:22:51.877Z,30.23
2019-04-01T10:25:19.776Z,27.17
2019-04-01T10:27:47.687Z,24.17
2019-04-01T10:30:15.925Z,23.90
2019-04-01T10:32:43.618Z,27.87
2019-04-01T10:35:11.309Z,21.93
2019-04-01T10:37:38.858Z,75.97
2019-04-01T10:40:07.356Z,62.37
2019-04-01T10:42:35.046Z,25.93
2019-04-01T10:45:03.238Z,20.93
2019-04-01T10:47:30.850Z,25.47
2019-04-01T10:49:58.463Z,22.17
2019-04-01T10:52:26.254Z,21.37
2019-04-01T10:54:54.093Z,20.40
2019-04-01T10:57:21.822Z,19.57
2019-04-01T10:59:49.525Z,19.93
2019-04-01T11:02:18.554Z,25.43
2019-04-01T11:04:46.491Z,21.07
2019-04-01T11:07:14.437Z,20.70
2019-04-01T11:09:42.150Z,19.50
2019-04-01T11:12:09.816Z,22.63
2019-04-01T11:14:37.575Z,18.10
2019-04-01T11:17:05.331Z,17.30
2019-04-01T11:19:33.269Z,20.47
2019-04-01T11:22:01.279Z,18.93
2019-04-01T11:24:29.163Z,24.53
2019-04-01T11:26:56.838Z,21.87
2019-04-01T11:29:25.776Z,21.20
2019-04-01T11:31:53.669Z,21.90
2019-04-01T11:34:23.142Z,19.50
2019-04-01T11:36:50.653Z,21.03
2019-04-01T11:39:18.243Z,19.57
2019-04-01T11:41:45.926Z,20.83
2019-04-01T11:44:13.551Z,18.30
2019-04-01T11:46:41.146Z,17.03
2019-04-01T11:49:09.444Z,18.70
2019-04-01T11:51:40.053Z,16.27
2019-04-01T11:54:08.269Z,20.13
2019-04-01T11:56:36.250Z,23.60
2019-04-01T11:59:03.744Z,31.03
2019-04-01T12:01:31.250Z,20.03
2019-04-01T12:03:58.695Z,22.80
2019-04-01T12:06:26.124Z,16.90
2019-04-01T12:08:53.619Z,20.93
2019-04-01T12:11:21.399Z,21.00
2019-04-01T12:13:48.851Z,21.53
2019-04-01T12:16:16.289Z,22.03
2019-04-01T12:18:44.835Z,28.50
2019-04-01T12:21:12.746Z,31.43
2019-04-01T12:23:40.250Z,23.73
2019-04-01T12:26:15.062Z,28.90
2019-04-01T12:28:37.051Z,24.43
2019-04-01T12:31:04.535Z,22.67
2019-04-01T12:33:32.191Z,22.73
2019-04-01T12:35:59.798Z,27.67
2019-04-01T12:38:27.284Z,26.00
2019-04-01T12:40:54.822Z,21.93
2019-04-01T12:43:23.647Z,24.43
2019-04-01T12:45:51.429Z,25.57
2019-04-01T12:48:18.892Z,23.90
2019-04-01T12:50:46.482Z,22.23
2019-04-01T12:53:13.977Z,25.50
2019-04-01T12:55:44.864Z,24.00
2019-04-01T12:58:11.063Z,25.30
2019-04-01T13:00:38.626Z,27.67
2019-04-01T13:03:06.179Z,25.50
2019-04-01T13:05:33.637Z,29.40
2019-04-01T13:08:01.282Z,26.70
2019-04-01T13:10:28.806Z,22.10
2019-04-01T13:12:56.300Z,22.80
2019-04-01T13:15:24.318Z,25.17
2019-04-01T13:17:51.774Z,25.90
2019-04-01T13:20:19.235Z,25.10
2019-04-01T13:22:46.727Z,31.07
2019-04-01T13:25:14.249Z,27.10
2019-04-01T13:27:41.755Z,22.93
2019-04-01T13:30:12.496Z,21.20
2019-04-01T13:32:40.038Z,21.53
2019-04-01T13:35:07.501Z,22.43
2019-04-01T13:37:35.065Z,20.40
2019-04-01T13:40:03.049Z,24.80
2019-04-01T13:42:31.942Z,23.73
2019-04-01T13:45:01.808Z,27.63
2019-04-01T13:47:28.776Z,28.30
2019-04-01T13:49:56.328Z,21.67
2019-04-01T13:52:23.883Z,26.93
2019-04-01T13:54:51.586Z,26.20
2019-04-01T13:57:19.062Z,27.87
2019-04-01T13:59:49.574Z,26.93
2019-04-01T14:02:15.970Z,21.73
2019-04-01T14:04:43.546Z,23.00
2019-04-01T14:07:12.042Z,25.87
2019-04-01T14:09:39.534Z,30.07
2019-04-01T14:12:07.073Z,24.00
2019-04-01T14:14:34.514Z,23.53
2019-04-01T14:17:02.050Z,28.97
2019-04-01T14:19:29.513Z,25.40
2019-04-01T14:21:56.940Z,25.07
2019-04-01T14:24:24.780Z,32.70
2019-04-01T14:26:52.403Z,27.37
2019-04-01T14:29:19.872Z,19.77
2019-04-01T14:31:47.328Z,33.00
2019-04-01T14:34:22.960Z,22.20
2019-04-01T14:36:44.200Z,24.80
2019-04-01T14:39:11.746Z,23.90
2019-04-01T14:41:39.281Z,20.63
2019-04-01T14:44:06.809Z,27.53
2019-04-01T14:46:34.304Z,22.83
2019-04-01T14:49:02.885Z,22.77
2019-04-01T14:51:31.063Z,24.00
2019-04-01T14:53:58.560Z,24.30
2019-04-01T14:56:28.661Z,22.93
2019-04-01T14:58:56.251Z,23.83
2019-04-01T15:01:23.719Z,18.63
2019-04-01T15:03:51.194Z,20.70
2019-04-01T15:06:18.643Z,21.30
2019-04-01T15:08:46.096Z,20.97
2019-04-01T15:11:13.582Z,24.70
2019-04-01T15:13:41.042Z,23.57
2019-04-01T15:16:08.501Z,23.77
2019-04-01T15:18:36.061Z,25.47
2019-04-01T15:21:03.605Z,22.77
2019-04-01T15:23:31.123Z,29.93
2019-04-01T15:25:58.873Z,22.20
2019-04-01T15:28:26.513Z,29.30
2019-04-01T15:30:53.996Z,21.40
2019-04-01T15:33:21.593Z,21.70
2019-04-01T15:35:49.122Z,23.00
2019-04-01T15:38:16.759Z,20.90
2019-04-01T15:40:44.349Z,26.60
2019-04-01T15:43:12.122Z,22.20
2019-04-01T15:45:40.135Z,20.23
2019-04-01T15:48:08.071Z,25.10
2019-04-01T15:50:35.672Z,21.83
2019-04-01T15:53:03.218Z,20.10
2019-04-01T15:55:31.741Z,24.07
2019-04-01T15:57:59.762Z,23.47
2019-04-01T16:00:27.234Z,25.33
2019-04-01T16:02:54.748Z,24.20
2019-04-01T16:05:22.235Z,26.13
2019-04-01T16:07:49.811Z,29.03
2019-04-01T16:10:17.415Z,22.53
2019-04-01T16:12:45.280Z,22.60
2019-04-01T16:15:13.172Z,26.10
2019-04-01T16:17:40.740Z,27.47
2019-04-01T16:20:08.271Z,25.83
2019-04-01T16:22:38.667Z,21.53
2019-04-01T16:25:07.055Z,21.50
2019-04-01T16:27:35.392Z,26.53
2019-04-01T16:30:04.170Z,24.20
2019-04-01T16:32:31.810Z,23.10
2019-04-01T16:34:59.321Z,25.23
2019-04-01T16:37:29.237Z,25.27
2019-04-01T16:39:56.690Z,20.80
2019-04-01T16:42:24.092Z,22.90
2019-04-01T16:44:54.046Z,24.33
2019-04-01T16:47:20.900Z,17.90
2019-04-01T16:49:48.429Z,33.03
2019-04-01T16:52:15.975Z,22.83
2019-04-01T16:54:55.353Z,25.03
2019-04-01T16:57:24.957Z,24.17
2019-04-01T16:59:52.429Z,19.03
2019-04-01T17:02:21.125Z,21.93
2019-04-01T17:04:49.006Z,29.30
2019-04-01T17:07:19.413Z,29.40
2019-04-01T17:09:47.119Z,23.30
2019-04-01T17:12:14.734Z,21.57
2019-04-01T17:14:42.256Z,29.83
2019-04-01T17:17:10.849Z,20.83
2019-04-01T17:19:38.845Z,28.37
2019-04-01T17:22:06.434Z,33.37
2019-04-01T17:24:34.125Z,28.27
2019-04-01T17:27:11.925Z,23.03
2019-04-01T17:29:41.373Z,17.50
2019-04-01T17:32:08.921Z,30.03
2019-04-01T17:34:36.429Z,18.90
2019-04-01T17:37:04.123Z,18.60
2019-04-01T17:39:31.599Z,23.57
2019-04-01T17:41:59.177Z,18.87
2019-04-01T17:44:26.931Z,27.57
2019-04-01T17:46:54.586Z,31.00
2019-04-01T17:49:22.029Z,29.63
2019-04-01T17:51:49.518Z,25.90
2019-04-01T17:54:19.834Z,25.83
2019-04-01T17:56:47.471Z,23.87
2019-04-01T17:59:15.446Z,23.90
2019-04-01T18:01:44.662Z,24.00
2019-04-01T18:04:12.631Z,23.77
2019-04-01T18:06:40.121Z,20.90
2019-04-01T18:09:07.948Z,23.67
2019-04-01T18:11:36.374Z,19.50
2019-04-01T18:14:03.855Z,26.40
2019-04-01T18:16:31.548Z,23.37
2019-04-01T18:18:59.129Z,20.93
2019-04-01T18:21:26.617Z,22.73
2019-04-01T18:23:54.869Z,21.70
2019-04-01T18:26:22.549Z,34.87
2019-04-01T18:28:50.016Z,24.73
2019-04-01T18:31:17.521Z,30.13
2019-04-01T18:33:55.703Z,25.00
2019-04-01T18:36:14.484Z,22.27
2019-04-01T18:38:41.988Z,19.23
2019-04-01T18:41:09.582Z,25.90
2019-04-01T18:43:37.078Z,25.40
2019-04-01T18:46:04.499Z,21.30
2019-04-01T18:48:32.024Z,24.93
2019-04-01T18:50:59.534Z,24.77
2019-04-01T18:53:28.628Z,69.30
2019-04-01T18:55:56.911Z,24.03
2019-04-01T18:58:25.176Z,23.90
2019-04-01T19:00:53.105Z,21.67
2019-04-01T19:03:23.872Z,25.07
2019-04-01T19:05:50.227Z,31.87
2019-04-01T19:08:17.863Z,41.27
2019-04-01T19:10:45.442Z,31.10
2019-04-01T19:13:13.277Z,18.10
2019-04-01T19:15:41.973Z,22.33
2019-04-01T19:18:11.247Z,18.37
2019-04-01T19:20:40.088Z,20.77
2019-04-01T19:23:09.885Z,32.87
2019-04-01T19:25:37.449Z,26.67
2019-04-01T19:28:05.205Z,24.87
2019-04-01T19:30:32.818Z,21.30
2019-04-01T19:33:00.361Z,28.10
2019-04-01T19:35:27.987Z,20.60
2019-04-01T19:37:56.681Z,27.57
2019-04-01T19:40:24.394Z,20.10
2019-04-01T19:42:52.152Z,23.60
2019-04-01T19:45:19.955Z,20.33
2019-04-01T19:47:47.525Z,30.37
2019-04-01T19:50:27.986Z,21.40
2019-04-01T19:52:55.741Z,24.50
2019-04-01T19:55:23.418Z,27.10
2019-04-01T19:57:51.077Z,21.50
2019-04-01T20:00:27.712Z,23.80
2019-04-01T20:02:49.629Z,26.00
2019-04-01T20:05:17.269Z,26.83
2019-04-01T20:07:44.750Z,27.43
2019-04-01T20:10:12.677Z,24.60
2019-04-01T20:12:41.188Z,25.03
2019-04-01T20:15:10.806Z,23.03
2019-04-01T20:17:39.109Z,26.77
2019-04-01T20:20:07.411Z,27.20
2019-04-01T20:22:34.998Z,35.03
2019-04-01T20:25:02.785Z,29.03
2019-04-01T20:27:30.378Z,28.47
2019-04-01T20:29:57.883Z,31.23
2019-04-01T20:32:25.393Z,26.57
2019-04-01T20:34:57.207Z,43.50
2019-04-01T20:37:22.635Z,32.60
2019-04-01T20:39:50.355Z,36.97
2019-04-01T20:42:17.978Z,184.37
2019-04-01T20:44:45.448Z,40.73
2019-04-01T20:47:12.979Z,30.70
2019-04-01T20:49:40.508Z,35.80
2019-04-01T20:52:08.093Z,43.43
2019-04-01T20:54:35.686Z,29.03
2019-04-01T20:57:05.108Z,34.33
2019-04-01T20:59:32.841Z,34.70
2019-04-01T21:02:00.376Z,32.60
2019-04-01T21:04:27.963Z,33.27
2019-04-01T21:06:55.597Z,34.20
2019-04-01T21:09:23.064Z,39.73
2019-04-01T21:11:50.553Z,34.73
2019-04-01T21:14:18.077Z,47.60
2019-04-01T21:16:45.663Z,33.67
2019-04-01T21:19:13.337Z,37.07
2019-04-01T21:21:41.000Z,43.33
2019-04-01T21:24:10.043Z,40.80
2019-04-01T21:26:37.586Z,39.97
2019-04-01T21:29:05.058Z,35.40
2019-04-01T21:31:32.584Z,40.70
2019-04-01T21:34:00.275Z,38.40
2019-04-01T21:36:28.804Z,35.80
2019-04-01T21:38:56.429Z,33.10
2019-04-01T21:41:25.229Z,33.37
2019-04-01T21:43:52.979Z,38.50
2019-04-01T21:46:20.505Z,47.07
2019-04-01T21:48:48.120Z,36.10
2019-04-01T21:51:15.611Z,34.80
2019-04-01T21:53:43.108Z,42.10
2019-04-01T21:56:10.978Z,33.93
2019-04-01T21:58:38.513Z,38.47
2019-04-01T22:01:06.173Z,34.13
2019-04-01T22:03:33.999Z,31.07
2019-04-01T22:06:01.861Z,35.10
2019-04-01T22:08:30.045Z,33.80
2019-04-01T22:10:57.786Z,37.50
2019-04-01T22:13:27.227Z,34.77
2019-04-01T22:15:54.919Z,41.60
2019-04-01T22:18:22.395Z,33.87
2019-04-01T22:20:50.140Z,33.03
2019-04-01T22:23:17.638Z,32.93
2019-04-01T22:25:45.183Z,37.13
2019-04-01T22:28:12.760Z,34.30
2019-04-01T22:30:40.300Z,30.20
2019-04-01T22:33:07.745Z,34.87
2019-04-01T22:35:39.024Z,35.63
2019-04-01T22:38:06.227Z,37.57
2019-04-01T22:40:34.183Z,37.20
2019-04-01T22:43:02.364Z,33.97
2019-04-01T22:45:30.350Z,32.97
2019-04-01T22:47:58.851Z,34.40
2019-04-01T22:50:26.696Z,33.27
2019-04-01T22:52:54.265Z,39.17
2019-04-01T22:55:22.028Z,30.33
2019-04-01T22:57:49.478Z,34.83
2019-04-01T23:00:18.550Z,35.53
2019-04-01T23:02:46.885Z,37.57
2019-04-01T23:05:14.737Z,32.80
2019-04-01T23:07:51.496Z,38.53
2019-04-01T23:10:19.010Z,33.97
2019-04-01T23:12:47.030Z,35.23
2019-04-01T23:15:15.365Z,36.80
2019-04-01T23:17:46.761Z,32.13
2019-04-01T23:20:15.419Z,35.20
2019-04-01T23:22:43.187Z,31.37
2019-04-01T23:25:13.627Z,36.03
2019-04-01T23:27:41.085Z,37.33
2019-04-01T23:30:10.463Z,37.47
2019-04-01T23:32:37.942Z,33.00
2019-04-01T23:35:05.638Z,36.70
2019-04-01T23:37:33.105Z,32.03
2019-04-01T23:40:00.539Z,33.90
2019-04-01T23:42:28.207Z,38.23
2019-04-01T23:44:56.246Z,31.50
2019-04-01T23:47:23.842Z,37.90
2019-04-01T23:49:51.449Z,36.90
2019-04-01T23:52:19.348Z,38.20
2019-04-01T23:54:46.836Z,28.33
2019-04-01T23:57:14.414Z,34.33
2019-04-01T23:59:43.041Z,32.03
